Alex Lima

Recruteur en chef - Cruzeiro
9 Déc 2027
Jeudi
Processus

Personnalité

Adaptabilité (15) Ambition (6) Controverse (4) Loyauté (13) Pression (16) Professionnalisme (10) Sportivité (10) Tempérament (9)

Profil

Style d'entraînement Démocratique
Diplôme National B
Détermination 13
Gestion des joueurs 14
Motivation 10
Discipline 9
Satisfaction professionnelle
100%
Fatigue
0%
Rôle Recruteur en chef
Salaire 100.8K p/s
Contrat 14.03.2028

Performance

Comportement Bon
Efficacité de l'entraînement
36%
Développement des joueurs
70%
Prévention des blessures
55%
Mise en place tactique
45%

Événements récents

A participé à une réunion de recrutement maintenant
A participé à une réunion de recrutement maintenant
A évalué un joueur 7j
A participé à une réunion de recrutement 7j
A recommandé une cible de transfert 7j
A participé à une réunion de recrutement 7j
A évalué un joueur 7j
A évalué un joueur 14j

Suivi en cours

252
Joueur Club Statut Capacité Confiance Observé Dernière observation Dernier vote
Jonathan Calleri Sport Recife Actif 123 / 138 58% 1 02.12.2027 Approuver
Arthur Cabral Botafogo Actif 122 / 126 40% 2 30.11.2027 -
Armindo Sieb Los Angeles Football Club Actif 124 / 122 40% 3 30.11.2027 -
Martín Ojeda Orlando City Actif 132 / 142 40% 2 29.11.2027 -
Bénie Traoré New York City Actif 135 / 130 40% 6 28.11.2027 -
Sead Hakšabanović Malmo FF Actif 135 / 136 40% 3 28.11.2027 -
Sebastián Cocimano Nueva Chicago Actif 104 / 108 40% 1 27.11.2027 -
Alejo Cruz Juventud Actif 116 / 129 40% 3 25.11.2027 -
Ferreirinha Sport Recife Actif 142 / 139 40% 3 25.11.2027 Observer
Jorge Obregón Deportivo Pasto Actif 113 / 108 40% 2 24.11.2027 -
Claudio Spinelli Vasco da Gama Actif 119 / 136 40% 3 24.11.2027 -
Iñaki Larthirigoyen San Telmo Actif 125 / 129 40% 3 24.11.2027 -
Diogo Guzmán Montevideo City Torque Actif 123 / 109 40% 2 24.11.2027 -
Luciano Cosentino Wanderers Actif 130 / 125 40% 2 22.11.2027 -
Alexis Cuello San Lorenzo Actif 124 / 118 40% 3 20.11.2027 -
Gustavo Neves Bragantino Actif 129 / 138 40% 4 18.11.2027 -
Rafael Navarro St. Louis CITY SC Actif 135 / 122 40% 2 18.11.2027 -
Felipe Amaral America Mineiro Actif 119 / 117 40% 2 18.11.2027 -
Augusto Berrondo Tristán Suárez Actif 102 / 104 40% 3 15.11.2027 -
Adalberto Peñaranda Deportivo Tachira Actif 122 / 112 40% 2 15.11.2027 -
Emmanuel Sabbi Vancouver Whitecaps Actif 119 / 118 40% 2 14.11.2027 -
Santiago Sala Güemes Actif 117 / 116 40% 3 14.11.2027 -
Lucas Assadi AIK Actif 116 / 126 40% 4 12.11.2027 -
Negueba Mirassol Actif 134 / 123 40% 3 12.11.2027 -
Telasco Segovia Inter Miami CF Actif 131 / 134 40% 3 09.11.2027 -
Maximiliano Meléndez Chacarita Juniors Actif 125 / 117 40% 3 09.11.2027 -
Juan Cruz de los Santos Nacional Actif 124 / 127 40% 3 08.11.2027 -
Cauan Barros Vasco da Gama Actif 122 / 140 40% 1 08.11.2027 -
Alan Velasco Boca Juniors Actif 129 / 127 40% 1 06.11.2027 -
Paxten Aaronson Colorado Rapids Actif 129 / 132 40% 4 05.11.2027 -
Ralph Orquin Seattle Sounders Actif 128 / 126 40% 5 05.11.2027 -
Agustín Anello Philadelphia Union Actif 125 / 121 40% 2 05.11.2027 -
Quinn Sullivan Philadelphia Union Actif 130 / 129 40% 5 03.11.2027 -
Victor Lind Hammarby Actif 119 / 114 40% 4 03.11.2027 -
Kevin Paredes River Plate Actif 136 / 125 40% 2 27.10.2027 -
Samuel Lucero Defensa y Justicia Actif 114 / 130 40% 2 27.10.2027 -
Luca Langoni Colorado Rapids Actif 140 / 135 40% 1 27.10.2027 -
Edinson Largacha Millonarios Actif 116 / 110 40% 2 26.10.2027 -
Diego Luna Real Salt Lake Actif 138 / 136 40% 2 26.10.2027 -
Gianluca Pugliese Güemes Actif 104 / 111 40% 2 25.10.2027 -
Dejan Joveljić Seattle Sounders Actif 126 / 128 40% 2 23.10.2027 -
Cheikh Sabaly Vancouver Whitecaps Actif 128 / 127 40% 1 20.10.2027 -
Mauricio Amaro Atlanta United FC Actif 123 / 120 40% 4 19.10.2027 -
Brooke Norton-Cuffy Inter Miami CF Actif 138 / 140 40% 2 19.10.2027 -
Agustín Gallo Tristán Suárez Actif 117 / 112 40% 2 17.10.2027 -
Louis Munteanu DC United Actif 131 / 124 40% 2 17.10.2027 -
Fernando Mimbacas Juventud Actif 104 / 104 40% 1 16.10.2027 -
Lisandro Cabrera Maipú Actif 122 / 117 40% 1 14.10.2027 -
Samuel Gidi FC Cincinnati Actif 116 / 119 40% 2 13.10.2027 -
Joaquín Gho Argentinos Juniors Actif 134 / 130 40% 1 13.10.2027 -
Alexis Domínguez Chacarita Juniors Actif 123 / 109 40% 1 08.10.2027 -
Wessam Abou Ali Columbus Crew Actif 136 / 129 40% 1 06.10.2027 -
Ilay Feingold New England Revolution Actif 113 / 118 40% 2 04.10.2027 -
Tomás Porra Barracas Central Actif 127 / 113 40% 1 04.10.2027 -
Mateo Silvetti Los Angeles Football Club Actif 134 / 130 40% 1 02.10.2027 -
Rodrigo Chagas Juventud Actif 114 / 118 40% 1 30.09.2027 -
Wallace Yan Botafogo Actif 128 / 130 40% 2 27.09.2027 -
Amin Boudri Los Angeles Football Club Actif 116 / 134 40% 4 25.09.2027 -
Oleh Ocheretko Austin FC Actif 129 / 140 40% 3 25.09.2027 -
Noel Buck San Jose Earthquakes Actif 123 / 117 40% 3 22.09.2027 -
Ahmed Qasem Nashville SC Actif 130 / 123 40% 1 18.09.2027 -
Ramiro Hernandes Belgrano Actif 126 / 119 40% 1 15.09.2027 -
Andrés Gómez Vasco da Gama Actif 142 / 139 40% 2 14.09.2027 -
Ignacio Perruzzi San Lorenzo Actif 120 / 138 40% 1 02.09.2027 -
Vinicinho Bragantino Actif 131 / 125 40% 2 27.08.2027 -
Brahima Diarra Al Wahda Actif 119 / 106 40% 1 23.08.2027 -
Davide Bartesaghi AC Milan Actif 150 / 155 40% 1 20.08.2027 -
Devyne Rensch AS Roma Actif 133 / 151 40% 1 19.08.2027 -
Matteo Francesconi Cesena Actif 133 / 143 40% 1 19.08.2027 -
Tommaso Berti Cesena Actif 121 / 135 40% 1 18.08.2027 -
Romano Floriani Mussolini Avellino Actif 125 / 145 40% 1 17.08.2027 -
Griffin Yow New England Revolution Actif 134 / 119 40% 1 17.08.2027 -
Cher Ndour Fiorentina Actif 149 / 138 40% 2 15.08.2027 -
Isaac Kyereh Liberty Professionals Actif 128 / 107 40% 1 15.08.2027 -
Assane Diao Lazio Actif 160 / 164 40% 3 12.08.2027 -
Jayden Addai Como Actif 141 / 127 40% 1 11.08.2027 -
Stiven Shpendi Empoli Actif 118 / 125 40% 1 11.08.2027 -
Filippo Distefano Empoli Actif 123 / 132 40% 1 10.08.2027 -
Cian Ashford Cardiff City Actif 113 / 118 40% 1 09.08.2027 -
Tom Fellows Southampton Actif 136 / 131 40% 2 08.08.2027 -
Ethan Williams Peterborough United Actif 127 / 136 40% 1 08.08.2027 -
Kevin Fulham Actif 152 / 148 40% 1 04.08.2027 -
Stanley Mills Oxford United Actif 136 / 141 40% 2 03.08.2027 -
Jack McGlynn Stoke City Actif 131 / 146 40% 1 03.08.2027 -
Toby Collyer West Bromwich Albion Actif 146 / 127 40% 2 02.08.2027 -
Richard Koné Queens Park Rangers Actif 130 / 125 40% 1 02.08.2027 -
Yeremy Pino Crystal Palace Actif 166 / 153 40% 1 19.07.2027 -
George Hall Port Vale Actif 104 / 111 40% 1 19.07.2027 -
Malick Fofana Sunderland Actif 161 / 137 40% 1 29.06.2027 -
Luis Vázquez Birmingham Actif 126 / 139 40% 2 14.06.2027 -
Andrea Pinamonti Lazio Actif 129 / 141 40% 1 14.06.2027 -
James Trafford Leeds United Actif 146 / 162 40% 7 30.05.2027 -
Pol Tristán Barnsley Actif 124 / 105 40% 1 30.05.2027 -
Max O'Leary West Bromwich Albion Actif 137 / 126 40% 4 29.05.2027 -
Grégoire Coudert Burnley Actif 130 / 130 40% 3 28.05.2027 -
Balázs Tóth Blackburn Rovers Actif 144 / 115 40% 4 28.05.2027 -
Gabriel Martinelli Brighton Actif 175 / 167 40% 1 28.05.2027 -
Robin Roefs Sunderland Actif 132 / 154 40% 9 26.05.2027 -
Kostantis Tzolakis Hull City Actif 149 / 135 40% 12 26.05.2027 -
Justin Bijlow Genoa Actif 153 / 153 40% 2 25.05.2027 -
Caoimhin Kelleher Brentford Actif 142 / 140 40% 9 24.05.2027 -
Egil Selvik Watford Actif 142 / 128 40% 5 23.05.2027 -
Bilal Bayazıt Kayserispor Actif 117 / 135 40% 1 23.05.2027 -
Radek Vítek Middlesbrough Actif 133 / 126 40% 8 22.05.2027 -
Simone Scuffet Pisa Actif 131 / 126 40% 4 22.05.2027 -
Lorenzo Palmisani Frosinone Actif 129 / 144 40% 2 21.05.2027 -
Deniz Ertaş Konyaspor Actif 125 / 122 40% 1 21.05.2027 -
Beau Reus Waasland-Beveren Actif 123 / 130 40% 2 20.05.2027 -
Edoardo Motta Lazio Actif 126 / 123 40% 1 17.05.2027 -
Yankuba Minteh Brighton Actif 162 / 145 40% 1 17.05.2027 -
Fer López Wolverhampton Actif 131 / 120 40% 1 17.05.2027 -
Daniel Iversen Preston Actif 132 / 135 40% 5 15.05.2027 -
Murphy Cooper Plymouth Argyle Actif 131 / 121 40% 1 14.05.2027 -
Giacomo Raspadori Atalanta Actif 152 / 161 40% 1 13.05.2027 Plus d'infos
Dominic Calvert-Lewin Leeds United Actif 130 / 130 40% 2 12.05.2027 -
Andre Brooks Sheffield United Actif 116 / 142 40% 2 11.05.2027 -
Mohamed Belloumi Hull City Actif 127 / 128 40% 1 11.05.2027 -
Tammy Abraham Aston Villa Actif 155 / 145 40% 1 11.05.2027 -
Ortwin De Wolf KV Mechelen Actif 135 / 106 40% 2 08.05.2027 -
Gonçalo Ramos AC Milan Actif 159 / 162 40% 1 08.05.2027 -
Christos Mouzakitis Hull City Actif 118 / 141 40% 1 07.05.2027 -
Othmane Maamma Watford Actif 132 / 124 40% 1 06.05.2027 -
Bento Al-Nassr Actif 126 / 133 40% 1 04.05.2027 -
Adam Wharton Crystal Palace Actif 150 / 139 40% 1 02.05.2027 -
Thomas De Bruyne Mouscron Actif 122 / 123 40% 1 28.04.2027 -
Taty Castellanos West Ham United Actif 144 / 146 40% 1 28.04.2027 -
Georginio Rutter Brighton Actif 153 / 148 40% 1 28.04.2027 -
Dango Ouattara Brentford Actif 149 / 150 40% 1 27.04.2027 -
Hwang Hee-Chan Wolverhampton Actif 120 / 135 40% 1 27.04.2027 -
Donyell Malen AS Roma Actif 151 / 157 40% 1 26.04.2027 -
Juan Soriano Académico de Viseu Actif 143 / 110 40% 7 24.04.2027 -
Luis Quintero Torreense Actif 132 / 118 40% 1 24.04.2027 -
Mario Dorgeles Braga Actif 130 / 134 40% 1 24.04.2027 -
Patrick Sequeira Casa Pia Actif 123 / 110 40% 5 21.04.2027 -
Tyler Goodrham Oxford United Actif 113 / 140 40% 1 21.04.2027 -
Louie Barry Sheffield Wednesday Actif 135 / 117 40% 1 21.04.2027 -
Roméo Beney Famalicao Actif 102 / 113 40% 1 20.04.2027 -
Dean Henderson Crystal Palace Actif 148 / 152 40% 5 17.04.2027 -
Jacob Widell Zetterström Derby County Actif 137 / 132 40% 1 16.04.2027 -
Juninho Pumas UNAM Actif 127 / 137 40% 2 15.04.2027 -
George Wickens Lincoln City Actif 104 / 107 40% 3 15.04.2027 -
Yousef Salech Cardiff City Actif 120 / 127 40% 1 15.04.2027 -
Cezary Miszta Rio Ave Actif 134 / 144 40% 6 12.04.2027 -
Jamie Cumming Oxford United Actif 122 / 119 40% 5 10.04.2027 -
Beni Mukendi Vitoria Guimaraes Actif 115 / 132 40% 1 08.04.2027 -
Rodrigo Ramos Moreirense Actif 122 / 126 40% 1 08.04.2027 -
Gonçalo Nogueira Vitoria Guimaraes Actif 119 / 106 40% 1 07.04.2027 -
Armando Broja Burnley Actif 137 / 119 40% 1 06.04.2027 -
Ollie Tanner Cardiff City Actif 107 / 118 40% 1 02.04.2027 -
Erick Reyes Toluca Actif 143 / 154 40% 11 30.03.2027 -
Gianluca Prestianni Benfica Actif 138 / 145 40% 2 30.03.2027 -
Hugo Cuypers Monterrey Actif 123 / 122 40% 1 30.03.2027 -
Adnan Courtois KV Oostende Actif 143 / 118 40% 1 30.03.2027 -
Mandla Erasmus SuperSport United Actif 124 / 106 40% 1 30.03.2027 -
Pablo Monroy Pumas UNAM Actif 110 / 129 40% 1 29.03.2027 -
Mads Hermansen West Ham United Actif 153 / 135 40% 3 27.03.2027 -
Carlos Moreno Pachuca Actif 138 / 140 40% 3 23.03.2027 -
Antonio Gomis Vizela Actif 138 / 133 40% 1 23.03.2027 -
Lukas Jensen Millwall Actif 121 / 119 40% 2 21.03.2027 -
Oli McBurnie Hull City Actif 138 / 129 40% 3 19.03.2027 -
Hugo Souza Corinthians Actif 145 / 142 40% 5 18.03.2027 -
Petar Musa Adana Demirspor Actif 131 / 139 40% 1 14.03.2027 -
Moussa Dembélé CR Belouizdad Actif 128 / 122 40% 1 14.03.2027 -
Ignacio de Arruabarrena Arouca Actif 144 / 122 40% 11 11.03.2027 -
Raúl Rangel Sporting CP Actif 146 / 144 40% 5 11.03.2027 -
Adriel Torreense Actif 108 / 132 40% 2 10.03.2027 -
Arijanet Murić Sassuolo Actif 128 / 144 40% 1 06.03.2027 -
Lazar Carević Famalicao Actif 132 / 120 40% 6 04.03.2027 -
Michael Cooper Sheffield United Actif 120 / 140 40% 2 02.03.2027 -
Dodi Lukébakio Benfica Actif 156 / 144 40% 3 01.03.2027 -
Ivan Toney Al-Ahli Actif 156 / 147 40% 1 01.03.2027 -
Zeki Amdouni Burnley Actif 126 / 135 40% 2 28.02.2027 -
Callum O'Hare Sheffield United Actif 120 / 144 40% 1 26.02.2027 -
André Silva Tondela Actif 116 / 124 40% 2 24.02.2027 -
Iker Benito Queretaro Actif 117 / 130 40% 2 23.02.2027 -
Rodrigo Pinheiro Famalicao Actif 115 / 118 40% 1 23.02.2027 -
Yusuke Matsuo Esteghlal Actif 117 / 124 40% 1 22.02.2027 -
Domagoj Drožđek Tractor Actif 118 / 115 40% 1 22.02.2027 -
Fotis Ioannidis Rio Ave Actif 134 / 144 40% 3 19.02.2027 -
Lewis Morgan SuperSport United Actif 123 / 133 40% 1 18.02.2027 -
Iván Fresneda Sporting CP Actif 147 / 127 40% 1 18.02.2027 -
Nicolas Schmid Portsmouth Actif 108 / 132 40% 3 16.02.2027 -
Vitor Eudes Fluminense Actif 128 / 118 40% 1 14.02.2027 -
Ilay Camara Anderlecht Actif 116 / 125 40% 1 13.02.2027 -
Ilyas Ansah Hull City Actif 122 / 120 40% 1 09.02.2027 -
Hany Mukhtar Spezia Actif 153 / 119 40% 1 09.02.2027 -
Sipho Chaine Orlando Pirates Actif 135 / 103 40% 1 08.02.2027 -
Kerem Aktürkoğlu Fenerbahce Actif 158 / 124 40% 1 07.02.2027 -
Lucas Arcanjo Vitória Actif 129 / 122 40% 2 06.02.2027 -
Yehvann Diouf OGC Nice Actif 134 / 127 40% 1 04.02.2027 -
Taichi Fukui Arouca Actif 110 / 143 40% 1 03.02.2027 -
John Kennedy Fluminense Actif 116 / 134 58% 1 28.12.2026 -
Alessandro Buongiorno Sassuolo Actif 169 / 154 40% 1 30.11.2026 -
Christian Krasnodar Actif 142 / 144 40% 1 30.11.2026 -
Nicolás Sumavil Platense Actif 117 / 114 40% 1 27.11.2026 -
Lucas Piton Vasco da Gama Actif 140 / 140 40% 1 25.11.2026 -
Anel Ahmedhodžić Burnley Actif 129 / 132 40% 1 25.11.2026 -
André Moreira Oliveirense Actif 122 / 98 40% 1 22.11.2026 -
Carlos Vinícius Grêmio Actif 124 / 130 40% 1 19.11.2026 -
Héctor Hernández Gil Vicente Actif 134 / 135 40% 1 19.11.2026 -
Neymar Santos Actif 154 / 152 40% 2 17.11.2026 -
Geovanni Banguera Deportivo Pasto Actif 112 / 117 40% 2 13.11.2026 -
Ezequiel Centurión River Plate Actif 127 / 128 40% 1 11.11.2026 -
Bernardo Fontes Braga Actif 120 / 121 40% 1 10.11.2026 -
Víctor Cabezas Union Magdalena Actif 114 / 129 40% 1 02.11.2026 -
Matěj Kovář PSV Actif 137 / 151 40% 1 02.11.2026 -
André Ferreira Moreirense Actif 104 / 110 40% 2 31.10.2026 -
Chuchu Ramírez Nacional Actif 117 / 111 40% 1 31.10.2026 -
Gustaf Lagerbielke Braga Actif 149 / 118 40% 1 31.10.2026 -
Aníbal Moreno River Plate Actif 139 / 126 40% 1 31.10.2026 -
Alfonso Trezza Arouca Actif 135 / 128 40% 1 27.10.2026 -
Luis Ingolotti Atlético Tucumán Actif 122 / 116 40% 1 25.10.2026 -
Eduardo Sasha Bragantino Actif 129 / 133 40% 1 24.10.2026 -
Facundo Cambeses Racing Club Actif 132 / 118 40% 1 23.10.2026 -
Felipe Parra Envigado Actif 113 / 114 40% 3 19.10.2026 -
José Manuel López Palmeiras Actif 125 / 142 40% 1 19.10.2026 -
Christian Walton Ipswich Town Actif 144 / 125 40% 2 18.10.2026 -
Gabriel Jesus Barcelona Actif 139 / 140 40% 1 16.10.2026 -
Gabriel Veron Porto Actif 129 / 128 40% 1 15.10.2026 -
Gabriel Batista Botafogo Actif 137 / 128 40% 3 10.10.2026 -
Drake Callender Minnesota United FC Actif 127 / 124 40% 1 08.10.2026 -
Jean America de Cali Actif 120 / 132 40% 3 06.10.2026 -
Matheus Mendes Alverca Actif 105 / 129 40% 2 04.10.2026 -
Carlos Miguel Palmeiras Actif 137 / 140 40% 4 02.10.2026 -
Antoine Griezmann Orlando City Actif 158 / 154 40% 2 30.09.2026 -
Inti López River Plate Actif 92 / 90 40% 1 28.09.2026 -
Patrick Schulte Columbus Crew Actif 120 / 111 40% 1 25.09.2026 -
Jalen Blesa Rio Ave Actif 101 / 132 40% 1 25.09.2026 -
Gustavo Silva Vitoria Guimaraes Actif 112 / 106 40% 1 25.09.2026 -
Youssoufa Moukoko FC Copenhagen Actif 135 / 131 40% 1 23.09.2026 -
Vinícius Lopes Santa Clara Actif 126 / 129 40% 1 21.09.2026 -
Jonás Luna Santa Clara Actif 117 / 115 40% 1 19.09.2026 -
Jovan Milošević Braga Actif 132 / 104 40% 1 16.09.2026 -
Andrés Gudiño Cruz Azul Actif 121 / 114 40% 1 10.09.2026 -
Léo Jacó Santa Clara Actif 92 / 118 40% 1 10.09.2026 -
Markus Jensen Nacional Actif 119 / 105 40% 1 10.09.2026 -
Paulinho Palmeiras Actif 147 / 130 40% 2 07.09.2026 -
Roberto Fernández Braga Actif 126 / 142 40% 1 07.09.2026 -
Roberto Ramírez Godoy Cruz Actif 128 / 122 40% 1 05.09.2026 -
Rafa Benfica Actif 152 / 137 40% 1 02.09.2026 -
Arnel Jakupović Vitoria Guimaraes Actif 108 / 99 40% 1 01.09.2026 -
Diego Rossi Monterrey Actif 127 / 138 40% 1 01.09.2026 -
Mohammed Bouldini Académico de Viseu Actif 130 / 128 40% 1 30.08.2026 -
Nicolás Campisi Sportivo Luqueno Actif 129 / 115 40% 1 27.08.2026 -
Matt Freese New York City Actif 134 / 118 40% 1 22.08.2026 -
Manuel Roffo Cerro Porteno Actif 134 / 116 40% 1 15.08.2026 -
Heung-Min Son Los Angeles Football Club Actif 150 / 152 40% 1 12.08.2026 -
Yoane Wissa Newcastle United Actif 155 / 143 40% 1 12.08.2026 -
Ronaldo Bahia Actif 127 / 123 40% 1 04.08.2026 -
Unai Simón Athletic Bilbao Actif 152 / 176 40% 1 04.08.2026 -
Augusto Batalla Rayo Vallecano Actif 145 / 153 40% 1 03.08.2026 -
Andrew Flamengo Actif 120 / 134 40% 1 01.08.2026 -